Time;durP1;ratioP1;P1;durP2;ratioP2;P2;SDS_P1;SDS_P2;PMS_P1;PMS_P2;Temp;Humidity;BMP_temperature;BMP_pressure;BME280_temperature;BME280_humidity;BME280_pressure;Samples;Min_cycle;Max_cycle;Signal;HPM_P1;HPM_P2
2023/04/17 00:01:42;;;;;;;12.50;9.30;;;14.40;69.70;;;;;;5019276;28;20466;-80
2023/04/17 00:04:09;;;;;;;11.45;8.90;;;14.40;69.80;;;;;;5002973;28;20437;-79
2023/04/17 00:06:44;;;;;;;12.75;8.98;;;14.40;69.80;;;;;;5019808;28;20040;-79
2023/04/17 00:09:11;;;;;;;11.07;8.75;;;14.30;69.80;;;;;;5003478;28;20044;-80
2023/04/17 00:11:37;;;;;;;11.10;9.15;;;14.30;69.80;;;;;;5055982;28;20021;-79
2023/04/17 00:14:03;;;;;;;11.52;9.35;;;14.30;69.80;;;;;;5022884;28;20488;-80
2023/04/17 00:16:28;;;;;;;10.88;8.60;;;14.30;69.90;;;;;;5022933;28;20120;-80
2023/04/17 00:18:54;;;;;;;10.93;8.23;;;14.20;69.80;;;;;;5006405;28;20454;-79
2023/04/17 00:21:20;;;;;;;12.45;8.85;;;14.20;69.90;;;;;;5039098;28;20029;-80
2023/04/17 00:23:46;;;;;;;12.55;9.15;;;14.20;69.90;;;;;;5057463;28;20448;-80
2023/04/17 00:26:12;;;;;;;12.75;9.55;;;14.20;70.00;;;;;;5022580;28;20104;-80
2023/04/17 00:28:41;;;;;;;11.18;9.05;;;14.20;70.00;;;;;;5007499;28;20478;-79
2023/04/17 00:31:06;;;;;;;12.13;8.63;;;14.20;70.00;;;;;;5007144;28;20081;-80
2023/04/17 00:33:32;;;;;;;10.57;8.63;;;14.20;70.00;;;;;;5056905;28;20033;-79
2023/04/17 00:35:58;;;;;;;10.52;8.10;;;14.10;69.90;;;;;;5007070;28;20033;-79
2023/04/17 00:38:24;;;;;;;9.98;8.32;;;14.10;70.00;;;;;;5023182;28;20048;-80
2023/04/17 00:40:50;;;;;;;11.05;8.80;;;14.10;70.00;;;;;;5022442;28;20052;-80
2023/04/17 00:43:16;;;;;;;11.15;9.00;;;14.10;70.00;;;;;;5006106;28;20037;-79
2023/04/17 00:45:42;;;;;;;11.18;8.70;;;14.10;70.10;;;;;;5022544;28;20032;-80
2023/04/17 00:48:09;;;;;;;10.27;8.27;;;14.10;70.10;;;;;;5038987;28;20519;-80
2023/04/17 00:50:36;;;;;;;11.98;8.82;;;14.10;70.20;;;;;;5056238;28;20025;-80
2023/04/17 00:53:02;;;;;;;10.35;8.02;;;14.10;70.10;;;;;;5022207;28;20061;-80
2023/04/17 00:55:30;;;;;;;12.95;9.27;;;14.00;70.10;;;;;;5005968;28;20033;-79
2023/04/17 00:57:55;;;;;;;11.32;8.43;;;14.00;70.20;;;;;;5056387;28;20096;-80
2023/04/17 01:00:21;;;;;;;10.30;8.18;;;14.00;70.20;;;;;;5005671;28;20112;-79
2023/04/17 01:02:48;;;;;;;11.88;8.25;;;14.00;70.20;;;;;;5005660;28;20466;-79
2023/04/17 01:05:14;;;;;;;12.32;9.00;;;13.90;70.20;;;;;;5006440;28;20426;-81
2023/04/17 01:07:41;;;;;;;12.27;9.30;;;14.00;70.20;;;;;;5005769;28;20060;-80
2023/04/17 01:10:07;;;;;;;12.00;9.35;;;13.90;70.20;;;;;;5022053;28;20059;-80
2023/04/17 01:12:33;;;;;;;10.90;8.55;;;13.90;70.20;;;;;;5021826;28;20048;-79
2023/04/17 01:14:59;;;;;;;10.25;8.40;;;13.90;70.20;;;;;;5005793;28;20128;-80
2023/04/17 01:17:26;;;;;;;11.52;8.95;;;13.90;70.20;;;;;;5021565;28;20032;-80
2023/04/17 01:19:53;;;;;;;12.02;8.98;;;13.80;70.20;;;;;;5038439;28;20481;-80
2023/04/17 01:22:19;;;;;;;10.77;8.23;;;13.80;70.30;;;;;;5021728;28;20454;-79
2023/04/17 01:24:46;;;;;;;12.07;9.30;;;13.90;70.30;;;;;;5021999;28;20029;-80
2023/04/17 01:27:14;;;;;;;11.35;9.25;;;13.90;70.40;;;;;;5021854;28;20033;-80
2023/04/17 01:29:42;;;;;;;11.57;8.63;;;13.80;70.30;;;;;;5022546;28;20106;-80
2023/04/17 01:32:09;;;;;;;12.15;9.30;;;13.80;70.30;;;;;;5022194;28;20052;-80
2023/04/17 01:34:36;;;;;;;11.50;8.98;;;13.80;70.30;;;;;;5021554;28;20029;-79
2023/04/17 01:37:01;;;;;;;12.38;9.55;;;13.70;70.30;;;;;;5021657;28;20389;-80
2023/04/17 01:39:27;;;;;;;12.23;8.90;;;13.70;70.40;;;;;;5022116;28;20033;-78
2023/04/17 01:41:53;;;;;;;11.95;8.93;;;13.70;70.40;;;;;;5004935;28;20084;-81
2023/04/17 01:44:19;;;;;;;11.48;8.55;;;13.70;70.40;;;;;;5021301;28;20029;-80
2023/04/17 01:46:46;;;;;;;12.15;9.13;;;13.70;70.40;;;;;;5037959;28;20020;-80
2023/04/17 01:49:13;;;;;;;11.50;8.60;;;13.70;70.50;;;;;;5022016;28;20033;-80
2023/04/17 01:51:38;;;;;;;13.50;8.95;;;13.70;70.60;;;;;;5021486;28;20111;-80
2023/04/17 01:54:05;;;;;;;13.02;9.55;;;13.60;70.50;;;;;;5020970;28;20385;-80
2023/04/17 01:56:30;;;;;;;13.15;10.00;;;13.70;70.60;;;;;;5020877;28;20029;-80
2023/04/17 01:58:56;;;;;;;13.77;10.10;;;13.60;70.50;;;;;;5004898;28;20041;-82
2023/04/17 02:01:22;;;;;;;12.73;9.50;;;13.60;70.60;;;;;;5004921;28;20516;-80
2023/04/17 02:03:48;;;;;;;12.30;9.57;;;13.60;70.60;;;;;;5037525;28;20033;-79
2023/04/17 02:06:15;;;;;;;12.77;9.38;;;13.60;70.60;;;;;;5021185;28;20139;-80
2023/04/17 02:08:43;;;;;;;12.48;9.73;;;13.50;70.60;;;;;;5005849;28;20091;-79
2023/04/17 02:11:09;;;;;;;14.40;9.98;;;13.50;70.70;;;;;;5020844;28;20444;-80
2023/04/17 02:13:35;;;;;;;11.85;9.35;;;13.50;70.70;;;;;;5004503;28;20027;-80
2023/04/17 02:16:02;;;;;;;12.52;10.13;;;13.50;70.70;;;;;;5021997;28;20067;-79
2023/04/17 02:18:28;;;;;;;13.50;9.73;;;13.50;70.70;;;;;;5036960;28;20032;-79
2023/04/17 02:20:54;;;;;;;13.10;9.77;;;13.50;70.70;;;;;;5005122;28;20041;-81
2023/04/17 02:23:20;;;;;;;14.32;9.82;;;13.50;70.70;;;;;;5036956;28;20490;-80
2023/04/17 02:25:45;;;;;;;14.45;9.73;;;13.50;70.70;;;;;;5020618;28;20033;-80
2023/04/17 02:28:13;;;;;;;13.10;9.52;;;13.50;70.80;;;;;;5037669;28;20357;-80
2023/04/17 02:30:39;;;;;;;12.98;9.35;;;13.40;70.80;;;;;;5004207;28;20052;-80
2023/04/17 02:33:06;;;;;;;12.20;9.13;;;13.40;70.90;;;;;;5019868;28;20033;-80
2023/04/17 02:35:32;;;;;;;16.50;10.88;;;13.40;70.90;;;;;;5037005;28;20029;-80
2023/04/17 02:37:58;;;;;;;12.85;10.02;;;13.40;71.60;;;;;;5003973;28;20021;-81
2023/04/17 02:40:25;;;;;;;14.07;10.32;;;13.40;71.00;;;;;;5003905;28;20090;-80
2023/04/17 02:42:58;;;;;;;13.90;9.75;;;13.40;70.90;;;;;;5006097;28;20036;-81
2023/04/17 02:45:24;;;;;;;12.65;10.00;;;13.40;70.90;;;;;;5036367;28;20044;-81
2023/04/17 02:47:49;;;;;;;14.43;10.88;;;13.30;70.90;;;;;;5020127;28;20458;-80
2023/04/17 02:50:15;;;;;;;14.55;10.30;;;13.40;71.00;;;;;;5020815;28;20491;-80
2023/04/17 02:53:00;;;;;;;14.07;10.18;;;13.30;71.00;;;;;;5009583;28;20487;-80
2023/04/17 02:55:26;;;;;;;13.80;10.23;;;13.30;70.90;;;;;;5003937;28;20033;-80
2023/04/17 02:57:52;;;;;;;13.40;10.07;;;13.30;71.00;;;;;;5003517;28;20040;-80
2023/04/17 03:00:17;;;;;;;13.18;10.05;;;13.30;71.00;;;;;;5036366;28;20036;-80
2023/04/17 03:02:43;;;;;;;12.75;9.75;;;13.20;71.00;;;;;;5020801;28;20029;-79
2023/04/17 03:05:10;;;;;;;14.32;10.65;;;13.30;71.00;;;;;;5036423;28;20040;-81
2023/04/17 03:07:36;;;;;;;14.15;10.07;;;13.30;71.10;;;;;;5003600;28;20083;-80
2023/04/17 03:10:02;;;;;;;13.63;10.40;;;13.20;71.00;;;;;;5004246;28;20474;-80
2023/04/17 03:12:29;;;;;;;13.95;10.48;;;13.20;71.10;;;;;;5020136;28;20057;-80
2023/04/17 03:14:55;;;;;;;12.45;10.05;;;13.20;71.10;;;;;;5020401;28;20033;-80
2023/04/17 03:17:21;;;;;;;12.20;9.52;;;13.20;71.20;;;;;;5019852;28;20382;-80
2023/04/17 03:19:47;;;;;;;13.27;10.00;;;13.20;71.10;;;;;;5003504;28;20489;-80
2023/04/17 03:22:12;;;;;;;13.35;9.85;;;13.10;71.10;;;;;;5003292;28;20033;-80
2023/04/17 03:24:40;;;;;;;11.90;9.10;;;13.20;71.20;;;;;;5020266;28;20036;-80
2023/04/17 03:27:06;;;;;;;12.35;8.77;;;13.10;71.20;;;;;;5019457;28;20470;-80
2023/04/17 03:29:37;;;;;;;11.48;9.13;;;13.10;71.20;;;;;;5005481;28;20029;-79
2023/04/17 03:32:03;;;;;;;11.73;8.85;;;13.10;71.20;;;;;;5053998;28;20381;-80
2023/04/17 03:34:30;;;;;;;11.02;8.45;;;13.10;71.80;;;;;;5035441;28;20021;-81
2023/04/17 03:36:57;;;;;;;11.25;9.38;;;13.10;71.20;;;;;;5002935;28;20029;-79
2023/04/17 03:39:23;;;;;;;11.68;8.55;;;13.10;71.30;;;;;;5002895;28;20044;-79
2023/04/17 03:41:49;;;;;;;12.52;9.18;;;13.10;71.30;;;;;;5002426;28;20057;-80
2023/04/17 03:44:16;;;;;;;11.07;8.63;;;13.10;71.30;;;;;;5019394;28;20025;-80
2023/04/17 03:46:43;;;;;;;11.40;9.00;;;13.00;71.20;;;;;;5002613;28;20044;-80
2023/04/17 03:49:10;;;;;;;11.07;9.13;;;13.00;71.20;;;;;;5036331;28;20075;-79
2023/04/17 03:51:36;;;;;;;12.27;9.25;;;13.00;71.20;;;;;;5003147;28;20071;-80
2023/04/17 03:54:09;;;;;;;11.20;9.40;;;13.00;71.30;;;;;;5019998;28;20082;-81
2023/04/17 03:56:35;;;;;;;11.70;8.95;;;13.00;71.30;;;;;;5002780;28;20029;-81
2023/04/17 03:59:05;;;;;;;11.00;8.25;;;13.00;71.40;;;;;;5019054;28;20033;-81
2023/04/17 04:01:37;;;;;;;11.25;7.97;;;13.00;71.30;;;;;;5004290;28;20086;-80
2023/04/17 04:04:12;;;;;;;11.40;8.98;;;13.00;71.30;;;;;;5020373;28;20057;-80
2023/04/17 04:06:38;;;;;;;11.02;8.90;;;13.00;71.30;;;;;;5035609;28;20063;-80
2023/04/17 04:09:06;;;;;;;10.38;8.43;;;12.90;71.30;;;;;;5019467;28;20036;-82
2023/04/17 04:11:32;;;;;;;10.93;8.50;;;12.90;71.40;;;;;;5002542;28;20194;-80
2023/04/17 04:13:57;;;;;;;12.70;9.55;;;12.90;71.40;;;;;;5002679;28;20428;-81
2023/04/17 04:16:23;;;;;;;12.43;9.15;;;12.90;71.50;;;;;;5002622;28;20057;-81
2023/04/17 04:18:53;;;;;;;11.60;8.77;;;12.90;71.40;;;;;;5004244;28;20327;-80
2023/04/17 04:21:19;;;;;;;11.73;8.82;;;12.90;71.40;;;;;;5002542;28;20033;-81
2023/04/17 04:23:45;;;;;;;11.27;9.38;;;12.90;71.50;;;;;;5019097;28;20033;-81
2023/04/17 04:26:15;;;;;;;10.88;8.63;;;12.90;71.50;;;;;;5018855;28;20037;-80
2023/04/17 04:28:47;;;;;;;11.93;9.02;;;12.90;71.40;;;;;;5019261;28;20037;-80
2023/04/17 04:31:19;;;;;;;10.90;8.63;;;12.90;71.40;;;;;;5019623;28;20037;-80
2023/04/17 04:33:45;;;;;;;11.48;9.30;;;12.80;71.40;;;;;;5035311;28;20045;-80
2023/04/17 04:36:12;;;;;;;10.95;8.15;;;12.80;71.50;;;;;;5002337;28;20021;-81
2023/04/17 04:38:39;;;;;;;11.00;8.75;;;12.80;71.50;;;;;;5035155;28;20051;-80
2023/04/17 04:41:16;;;;;;;11.57;8.55;;;12.80;71.50;;;;;;5005446;28;20095;-80
2023/04/17 04:43:43;;;;;;;11.32;8.95;;;12.80;71.50;;;;;;5002846;28;20029;-80
2023/04/17 04:46:11;;;;;;;12.52;9.45;;;12.70;71.50;;;;;;5018647;28;20086;-80
2023/04/17 04:48:42;;;;;;;10.85;8.02;;;12.80;71.60;;;;;;5003792;28;20041;-79
2023/04/17 04:51:08;;;;;;;11.43;8.70;;;12.70;71.60;;;;;;5002801;28;20044;-80
2023/04/17 04:53:34;;;;;;;10.57;8.57;;;12.70;71.60;;;;;;4986765;28;20465;-81
2023/04/17 04:56:00;;;;;;;11.82;8.57;;;12.70;71.60;;;;;;5019514;28;20033;-80
2023/04/17 04:58:30;;;;;;;12.60;8.80;;;12.70;71.60;;;;;;5006036;28;20041;-81
2023/04/17 05:00:59;;;;;;;11.68;9.00;;;12.70;71.60;;;;;;5006889;28;20033;-80
2023/04/17 05:03:31;;;;;;;10.82;8.25;;;12.70;71.70;;;;;;5007986;28;20025;-80
2023/04/17 05:05:59;;;;;;;11.43;8.90;;;12.70;71.70;;;;;;5006576;28;20060;-80
2023/04/17 05:08:30;;;;;;;11.60;9.25;;;12.70;71.70;;;;;;5023502;28;20026;-80
2023/04/17 05:11:06;;;;;;;11.73;8.80;;;12.70;71.70;;;;;;5008926;28;20040;-81
2023/04/17 05:13:32;;;;;;;11.57;8.63;;;12.70;71.70;;;;;;5022738;28;20039;-80
2023/04/17 05:15:58;;;;;;;12.13;8.98;;;12.60;71.70;;;;;;5038943;28;20021;-80
2023/04/17 05:18:26;;;;;;;12.20;9.73;;;12.60;71.80;;;;;;5037891;28;20044;-80
2023/04/17 05:20:53;;;;;;;13.35;9.27;;;12.60;71.80;;;;;;5022501;28;20033;-81
2023/04/17 05:23:21;;;;;;;11.63;8.75;;;12.60;71.70;;;;;;5022350;28;20037;-79
2023/04/17 05:25:48;;;;;;;13.20;9.95;;;12.60;71.80;;;;;;5005631;28;20120;-81
2023/04/17 05:28:14;;;;;;;13.05;9.52;;;12.60;71.80;;;;;;5021736;28;20032;-82
2023/04/17 05:30:40;;;;;;;12.38;9.27;;;12.60;71.80;;;;;;5021460;28;20025;-81
2023/04/17 05:33:17;;;;;;;12.60;9.65;;;12.60;71.80;;;;;;5023494;28;20556;-81
2023/04/17 05:35:50;;;;;;;12.00;9.70;;;12.60;71.80;;;;;;5006621;28;20029;-81
2023/04/17 05:38:16;;;;;;;11.70;9.38;;;12.60;71.80;;;;;;5038616;28;20052;-81
2023/04/17 05:40:42;;;;;;;12.07;8.90;;;12.60;72.50;;;;;;5021209;28;20033;-80
2023/04/17 05:43:10;;;;;;;12.73;9.52;;;12.60;71.80;;;;;;5037588;28;20029;-81
2023/04/17 05:45:37;;;;;;;12.02;9.38;;;12.60;71.90;;;;;;5005129;28;20500;-82
2023/04/17 05:48:07;;;;;;;13.68;10.07;;;12.60;71.90;;;;;;5021541;28;20469;-81
2023/04/17 05:50:33;;;;;;;12.70;9.73;;;12.60;71.90;;;;;;5005762;28;20033;-81
2023/04/17 05:52:59;;;;;;;11.88;9.45;;;12.50;71.90;;;;;;5021609;28;20036;-81
2023/04/17 05:55:29;;;;;;;13.00;9.82;;;12.50;71.90;;;;;;5037319;28;20052;-81
2023/04/17 05:57:58;;;;;;;12.80;10.00;;;12.50;71.90;;;;;;5005233;28;20082;-81
2023/04/17 06:00:24;;;;;;;11.85;9.20;;;12.50;71.90;;;;;;5021904;28;20079;-81
2023/04/17 06:02:55;;;;;;;12.77;9.15;;;12.50;72.00;;;;;;5021923;28;20123;-81
2023/04/17 06:05:40;;;;;;;12.95;9.55;;;12.50;72.00;;;;;;5009749;28;20029;-79
2023/04/17 06:08:06;;;;;;;12.00;9.95;;;12.50;71.90;;;;;;5020243;28;20040;-81
2023/04/17 06:10:32;;;;;;;11.77;9.40;;;12.50;71.90;;;;;;5004797;28;20028;-81
2023/04/17 06:13:00;;;;;;;12.75;10.10;;;12.50;72.00;;;;;;5005359;28;20025;-81
2023/04/17 06:15:26;;;;;;;13.90;9.90;;;12.50;72.10;;;;;;5037054;28;20060;-81
2023/04/17 06:17:52;;;;;;;12.65;9.90;;;12.50;72.10;;;;;;5005083;28;20091;-82
2023/04/17 06:20:18;;;;;;;11.70;8.85;;;12.50;72.10;;;;;;5004216;28;20041;-81
2023/04/17 06:22:45;;;;;;;12.77;9.15;;;12.50;72.10;;;;;;5021123;28;20036;-81
2023/04/17 06:25:12;;;;;;;12.32;9.60;;;12.50;72.10;;;;;;5021115;28;20017;-81
2023/04/17 06:27:38;;;;;;;13.15;10.02;;;12.50;72.10;;;;;;5037515;28;20037;-81
2023/04/17 06:30:05;;;;;;;14.65;10.10;;;12.50;72.10;;;;;;5021098;28;20412;-81
2023/04/17 06:32:41;;;;;;;12.18;9.27;;;12.50;72.20;;;;;;5006616;28;20025;-82
2023/04/17 06:35:08;;;;;;;12.45;9.45;;;12.50;72.20;;;;;;5020744;28;20492;-80
2023/04/17 06:37:41;;;;;;;13.33;9.83;;;12.50;72.20;;;;;;5022074;28;20414;-82
2023/04/17 06:40:08;;;;;;;13.00;9.32;;;12.50;72.20;;;;;;5003945;28;20330;-81
2023/04/17 06:42:34;;;;;;;12.98;9.65;;;12.50;72.20;;;;;;5020757;28;20049;-81
2023/04/17 06:45:02;;;;;;;12.98;9.80;;;12.50;72.20;;;;;;5004420;28;20040;-81
2023/04/17 06:47:27;;;;;;;13.50;10.05;;;12.50;72.20;;;;;;5020603;28;20026;-81
2023/04/17 06:49:53;;;;;;;13.40;10.48;;;12.50;72.80;;;;;;5004253;28;20044;-81
2023/04/17 06:52:20;;;;;;;14.30;10.18;;;12.50;72.20;;;;;;5003822;28;20036;-81
2023/04/17 06:54:47;;;;;;;13.60;10.52;;;12.50;72.20;;;;;;5004559;28;20037;-82
2023/04/17 06:57:12;;;;;;;13.70;10.18;;;12.50;72.20;;;;;;5003901;28;20032;-82
2023/04/17 06:59:39;;;;;;;13.63;10.35;;;12.50;72.20;;;;;;5004651;28;20041;-81
2023/04/17 07:02:04;;;;;;;11.63;9.35;;;12.50;72.30;;;;;;5003942;28;20119;-81
2023/04/17 07:04:30;;;;;;;14.00;10.35;;;12.50;72.20;;;;;;5019979;28;20092;-82
2023/04/17 07:06:56;;;;;;;13.13;10.35;;;12.50;72.20;;;;;;5003631;28;20025;-81
2023/04/17 07:09:23;;;;;;;13.43;10.38;;;12.50;72.20;;;;;;5019441;28;20127;-81
2023/04/17 07:11:49;;;;;;;12.73;9.75;;;12.60;72.30;;;;;;5036114;28;20025;-81
2023/04/17 07:14:15;;;;;;;13.20;10.18;;;12.50;72.20;;;;;;5003449;28;20347;-82
2023/04/17 07:16:41;;;;;;;12.20;9.90;;;12.50;72.30;;;;;;5003258;28;20044;-81
2023/04/17 07:19:07;;;;;;;15.52;10.55;;;12.50;72.30;;;;;;5019430;28;20037;-81
2023/04/17 07:21:33;;;;;;;12.52;9.95;;;12.50;72.20;;;;;;5036366;28;20086;-81
2023/04/17 07:23:58;;;;;;;14.30;10.52;;;12.60;72.30;;;;;;5019498;28;20496;-81
2023/04/17 07:26:24;;;;;;;13.57;10.15;;;12.60;72.30;;;;;;5002842;28;20127;-82
2023/04/17 07:28:50;;;;;;;14.05;10.30;;;12.50;72.30;;;;;;5019802;28;20041;-81
2023/04/17 07:31:16;;;;;;;13.60;10.23;;;12.60;72.40;;;;;;5019443;28;20497;-81
2023/04/17 07:33:42;;;;;;;15.05;11.52;;;12.60;72.40;;;;;;5035917;28;20040;-81
2023/04/17 07:36:10;;;;;;;14.43;10.80;;;12.60;72.40;;;;;;5019945;28;20370;-81
2023/04/17 07:38:35;;;;;;;14.85;11.55;;;12.60;72.40;;;;;;5035954;28;20044;-82
2023/04/17 07:41:02;;;;;;;14.52;10.93;;;12.60;72.40;;;;;;5016022;28;20426;-82
2023/04/17 07:43:27;;;;;;;15.00;11.68;;;12.60;72.40;;;;;;5016440;28;20033;-82
2023/04/17 07:45:54;;;;;;;15.75;11.52;;;12.60;72.40;;;;;;5017596;28;20107;-82
2023/04/17 07:48:21;;;;;;;15.20;11.90;;;12.60;72.40;;;;;;5001014;28;20466;-81
2023/04/17 07:50:48;;;;;;;14.50;11.48;;;12.60;72.50;;;;;;5017785;28;20075;-82
2023/04/17 07:53:14;;;;;;;16.05;12.13;;;12.60;72.40;;;;;;5016430;28;20021;-81
2023/04/17 07:55:40;;;;;;;16.90;12.18;;;12.60;72.40;;;;;;5032193;28;20367;-81
2023/04/17 07:58:05;;;;;;;15.20;11.82;;;12.60;72.40;;;;;;5032360;28;20496;-82
2023/04/17 08:00:32;;;;;;;14.35;11.80;;;12.60;72.40;;;;;;5016025;28;20475;-81
2023/04/17 08:02:58;;;;;;;14.43;11.32;;;12.70;72.50;;;;;;5032169;28;20033;-81
2023/04/17 08:05:24;;;;;;;14.75;11.90;;;12.70;72.50;;;;;;5015802;28;20029;-82
2023/04/17 08:07:50;;;;;;;17.00;12.45;;;12.70;72.50;;;;;;5032810;28;20029;-81
2023/04/17 08:10:16;;;;;;;15.05;11.40;;;12.70;72.50;;;;;;5032233;28;20478;-81
2023/04/17 08:12:42;;;;;;;14.60;11.55;;;12.70;72.50;;;;;;4999337;28;20031;-81
2023/04/17 08:15:08;;;;;;;16.83;12.68;;;12.70;72.50;;;;;;5016044;28;20030;-82
2023/04/17 08:17:34;;;;;;;18.92;13.63;;;12.80;72.60;;;;;;4999420;28;20090;-81
2023/04/17 08:20:01;;;;;;;15.88;12.18;;;12.80;72.50;;;;;;5015620;28;20511;-84
2023/04/17 08:22:27;;;;;;;15.65;11.82;;;12.80;72.50;;;;;;5015698;28;20033;-82
2023/04/17 08:24:56;;;;;;;17.25;12.18;;;12.80;72.50;;;;;;4999651;28;20132;-81
2023/04/17 08:27:25;;;;;;;17.73;12.77;;;12.80;72.50;;;;;;5032021;28;20047;-81
2023/04/17 08:29:54;;;;;;;16.63;12.25;;;12.80;72.50;;;;;;5031813;28;20033;-81
2023/04/17 08:32:20;;;;;;;15.95;13.07;;;12.80;72.50;;;;;;5001407;28;20064;-81
2023/04/17 08:34:45;;;;;;;16.77;12.57;;;12.80;72.50;;;;;;5037014;28;20033;-82
2023/04/17 08:37:11;;;;;;;15.52;12.52;;;12.80;72.50;;;;;;5035945;28;20087;-82
2023/04/17 08:39:37;;;;;;;15.95;12.35;;;12.90;72.60;;;;;;5035590;28;20073;-81
2023/04/17 08:42:07;;;;;;;15.80;12.27;;;12.90;72.50;;;;;;5035572;28;20552;-82
2023/04/17 08:44:33;;;;;;;16.45;12.65;;;12.90;72.50;;;;;;5036549;28;20120;-82
2023/04/17 08:46:59;;;;;;;16.95;12.20;;;12.90;72.50;;;;;;5019279;28;20509;-82
2023/04/17 08:49:28;;;;;;;14.43;11.93;;;13.00;72.50;;;;;;5035675;28;20136;-82
2023/04/17 08:51:54;;;;;;;18.15;13.38;;;13.00;72.50;;;;;;5035608;28;20059;-81
2023/04/17 08:54:20;;;;;;;17.65;13.45;;;13.00;72.50;;;;;;5019271;28;20037;-81
2023/04/17 08:56:49;;;;;;;15.77;12.20;;;13.00;72.40;;;;;;5002957;28;20029;-82
2023/04/17 08:59:18;;;;;;;17.50;13.57;;;13.10;72.50;;;;;;5002231;28;20038;-81
2023/04/17 09:02:05;;;;;;;16.50;11.77;;;13.10;72.40;;;;;;5003180;28;20029;-81
2023/04/17 09:04:42;;;;;;;14.93;12.00;;;13.10;72.50;;;;;;5019221;28;20021;-81
2023/04/17 09:07:10;;;;;;;16.40;12.70;;;13.20;72.40;;;;;;5037088;28;20029;-81
2023/04/17 09:09:50;;;;;;;16.25;12.63;;;13.20;72.20;;;;;;5019035;28;20021;-80
2023/04/17 09:12:17;;;;;;;16.50;12.73;;;13.30;72.30;;;;;;5036809;28;20038;-81
2023/04/17 09:14:43;;;;;;;16.52;13.02;;;13.30;72.10;;;;;;5002309;28;20040;-81
2023/04/17 09:17:09;;;;;;;16.80;13.32;;;13.30;72.10;;;;;;5036396;28;20034;-81
2023/04/17 09:19:35;;;;;;;16.15;12.57;;;13.40;72.10;;;;;;5018688;28;20048;-81
2023/04/17 09:22:21;;;;;;;15.90;12.63;;;13.50;72.00;;;;;;5019293;28;20351;-81
2023/04/17 09:24:47;;;;;;;15.38;12.57;;;13.50;72.00;;;;;;5035741;28;20038;-81
2023/04/17 09:27:21;;;;;;;16.85;12.68;;;13.60;71.90;;;;;;5035150;28;20386;-81
2023/04/17 09:30:02;;;;;;;16.35;12.32;;;13.60;71.90;;;;;;5034931;28;20041;-81
2023/04/17 09:32:29;;;;;;;17.40;13.77;;;13.70;71.90;;;;;;5018359;28;20068;-81
2023/04/17 09:34:58;;;;;;;14.98;12.13;;;13.70;71.70;;;;;;5018891;28;20021;-81
2023/04/17 09:37:26;;;;;;;15.38;12.40;;;13.80;71.70;;;;;;5036933;28;20052;-81
2023/04/17 09:40:10;;;;;;;17.60;12.82;;;13.80;71.70;;;;;;5022692;28;20037;-81
2023/04/17 09:43:03;;;;;;;16.88;13.25;;;13.90;71.70;;;;;;5017878;28;20084;-81
2023/04/17 09:45:40;;;;;;;15.63;12.23;;;14.00;71.70;;;;;;5034912;28;20033;-81
2023/04/17 09:48:09;;;;;;;15.52;12.32;;;14.00;71.50;;;;;;5034784;28;20037;-80
2023/04/17 09:50:35;;;;;;;14.40;12.07;;;14.00;71.40;;;;;;5036378;28;20049;-81
2023/04/17 09:53:03;;;;;;;15.38;11.55;;;14.10;71.40;;;;;;5018262;28;20032;-81
2023/04/17 09:55:33;;;;;;;15.52;12.02;;;14.20;71.50;;;;;;5001728;28;20091;-81
2023/04/17 09:58:04;;;;;;;14.85;12.07;;;14.20;71.40;;;;;;5018685;28;20037;-81
2023/04/17 10:00:29;;;;;;;14.68;11.77;;;14.20;71.40;;;;;;5034042;28;20033;-81
2023/04/17 10:02:57;;;;;;;14.82;12.10;;;14.30;71.30;;;;;;5034359;28;20128;-81
2023/04/17 10:05:27;;;;;;;15.40;12.50;;;14.30;71.30;;;;;;5034088;28;20042;-81
2023/04/17 10:07:54;;;;;;;14.82;12.05;;;14.30;71.20;;;;;;5034290;28;20035;-81
2023/04/17 10:10:32;;;;;;;15.95;12.13;;;14.40;71.20;;;;;;5035045;28;20053;-81
2023/04/17 10:13:10;;;;;;;13.65;11.20;;;14.50;71.20;;;;;;5034151;28;20100;-80
2023/04/17 10:15:37;;;;;;;14.57;11.45;;;14.50;71.10;;;;;;5034291;28;20025;-81
2023/04/17 10:18:18;;;;;;;14.07;11.43;;;14.50;71.00;;;;;;5033805;28;20496;-81
2023/04/17 10:20:47;;;;;;;14.75;11.52;;;14.60;71.10;;;;;;5034746;28;20033;-81
2023/04/17 10:23:45;;;;;;;13.93;12.02;;;14.60;70.90;;;;;;5018157;28;20029;-81
2023/04/17 10:26:29;;;;;;;13.48;11.52;;;14.70;71.10;;;;;;4991950;28;20041;-81
2023/04/17 10:28:58;;;;;;;13.55;10.82;;;14.70;70.90;;;;;;5017114;28;20037;-81
2023/04/17 10:32:02;;;;;;;13.02;10.77;;;14.80;70.80;;;;;;5001303;28;20116;-81
2023/04/17 10:34:36;;;;;;;12.57;10.25;;;14.80;70.90;;;;;;5033104;28;20030;-81
2023/04/17 10:37:03;;;;;;;12.52;10.18;;;14.90;70.80;;;;;;5033779;28;20511;-81
2023/04/17 10:40:09;;;;;;;13.70;10.70;;;14.90;70.70;;;;;;5017113;28;20461;-81
2023/04/17 10:42:35;;;;;;;13.43;10.18;;;15.00;70.80;;;;;;5016483;28;20551;-81
2023/04/17 10:45:04;;;;;;;12.63;10.15;;;15.00;70.60;;;;;;5000756;28;20033;-80
2023/04/17 10:47:34;;;;;;;12.35;10.45;;;15.10;70.70;;;;;;5017105;28;20033;-82
2023/04/17 10:50:02;;;;;;;12.80;9.75;;;15.10;70.60;;;;;;5034390;28;20485;-82
2023/04/17 10:52:31;;;;;;;13.75;11.07;;;15.20;70.60;;;;;;5034682;28;20454;-82
2023/04/17 10:55:09;;;;;;;12.50;10.05;;;15.30;70.60;;;;;;5033261;28;20051;-81
2023/04/17 10:58:12;;;;;;;12.40;9.48;;;15.30;70.50;;;;;;5034376;28;20053;-81
2023/04/17 11:00:48;;;;;;;11.75;9.90;;;15.40;70.50;;;;;;5033033;28;20041;-81
2023/04/17 11:03:15;;;;;;;11.13;9.20;;;15.40;70.30;;;;;;5016735;28;20029;-81
2023/04/17 11:05:45;;;;;;;10.90;9.35;;;15.50;70.30;;;;;;5033246;28;20053;-81
2023/04/17 11:08:11;;;;;;;12.02;9.95;;;15.50;70.30;;;;;;5032997;28;20056;-81
2023/04/17 11:10:37;;;;;;;11.13;9.65;;;15.60;70.30;;;;;;5016715;28;20029;-81
2023/04/17 11:13:03;;;;;;;11.75;9.50;;;15.70;70.30;;;;;;5000454;28;20039;-81
2023/04/17 11:15:31;;;;;;;12.27;9.82;;;15.70;70.20;;;;;;5032910;28;20029;-81
2023/04/17 11:17:58;;;;;;;11.88;9.85;;;15.70;70.10;;;;;;5033452;28;20030;-82
2023/04/17 11:20:26;;;;;;;11.57;8.90;;;15.80;70.10;;;;;;5000068;28;20044;-81
2023/04/17 11:22:52;;;;;;;11.75;9.98;;;15.80;70.00;;;;;;5032711;28;20025;-81
2023/04/17 11:25:20;;;;;;;10.98;8.88;;;15.90;69.90;;;;;;5033049;28;20515;-81
2023/04/17 11:27:46;;;;;;;10.40;8.68;;;16.00;70.00;;;;;;5000353;28;20033;-81
2023/04/17 11:30:12;;;;;;;11.77;9.70;;;16.00;69.90;;;;;;5016478;28;20037;-81
2023/04/17 11:32:42;;;;;;;11.55;9.25;;;16.10;69.90;;;;;;5016329;28;20029;-82
2023/04/17 11:35:08;;;;;;;11.40;9.32;;;16.20;69.80;;;;;;5016664;28;20036;-81
2023/04/17 11:37:34;;;;;;;10.93;9.02;;;16.20;69.70;;;;;;4999786;28;20490;-81
2023/04/17 11:40:07;;;;;;;10.68;8.57;;;16.30;69.60;;;;;;4999577;28;20041;-80
2023/04/17 11:42:33;;;;;;;10.27;8.23;;;16.40;69.60;;;;;;5016595;28;20049;-81
2023/04/17 11:45:05;;;;;;;10.73;8.27;;;16.40;69.40;;;;;;5016226;28;20112;-81
2023/04/17 11:47:31;;;;;;;11.05;8.50;;;16.50;69.40;;;;;;5015486;28;20469;-81
2023/04/17 11:49:57;;;;;;;11.70;9.38;;;16.50;69.30;;;;;;4999748;28;20061;-82
2023/04/17 11:52:23;;;;;;;10.77;9.23;;;16.60;69.30;;;;;;5016220;28;20131;-82
2023/04/17 11:54:56;;;;;;;12.25;9.88;;;16.70;69.20;;;;;;5032799;28;20455;-81
2023/04/17 11:57:22;;;;;;;9.83;8.50;;;16.70;69.20;;;;;;5033051;28;20068;-82
2023/04/17 11:59:48;;;;;;;11.32;8.90;;;16.80;69.10;;;;;;5033924;28;20474;-82
2023/04/17 12:02:15;;;;;;;11.23;9.00;;;16.90;69.10;;;;;;4999656;28;20029;-81
2023/04/17 12:04:41;;;;;;;10.65;8.82;;;16.90;69.10;;;;;;5032039;28;20128;-81
2023/04/17 12:07:07;;;;;;;10.55;8.65;;;17.00;69.10;;;;;;5015908;28;20469;-81
2023/04/17 12:09:34;;;;;;;9.95;8.40;;;17.00;69.10;;;;;;4999540;28;20037;-82
2023/04/17 12:12:04;;;;;;;9.98;8.75;;;17.10;69.00;;;;;;5031892;28;20028;-82
2023/04/17 12:14:30;;;;;;;9.70;8.52;;;17.10;69.00;;;;;;5000078;28;20585;-81
2023/04/17 12:16:56;;;;;;;9.52;7.80;;;17.20;68.90;;;;;;5032071;28;20022;-82
2023/04/17 12:19:24;;;;;;;9.90;8.85;;;17.30;68.90;;;;;;4999384;28;20098;-82
2023/04/17 12:21:51;;;;;;;10.80;8.65;;;17.30;68.80;;;;;;5000578;28;20039;-83
2023/04/17 12:24:18;;;;;;;9.98;8.27;;;17.40;68.80;;;;;;5015955;28;20484;-83
2023/04/17 12:26:49;;;;;;;8.98;7.82;;;17.40;68.70;;;;;;5031932;28;20034;-81
2023/04/17 12:29:15;;;;;;;9.57;7.88;;;17.50;68.70;;;;;;5032008;28;20034;-82
2023/04/17 12:31:43;;;;;;;9.45;8.10;;;17.50;68.60;;;;;;5015843;28;20025;-82
2023/04/17 12:34:09;;;;;;;10.75;8.70;;;17.60;68.50;;;;;;5032237;28;20103;-82
2023/04/17 12:36:34;;;;;;;9.45;7.90;;;17.60;68.40;;;;;;5032912;28;20381;-82
2023/04/17 12:39:00;;;;;;;9.68;7.82;;;17.70;68.50;;;;;;5033456;28;20049;-82